A A
   

最近的 特别机场 旧机场 KJFK John F Kennedy InternationalMMMX Mexico City TexcocoLFBT Tarbes-Lourdes-PyrénéesLFEM Montargis-VimoryLEVT Vitoria LFTW Nimes-Garons

飞行员的航空天气,使用METAR(气象机场报告)进行的飞行准备和TAF(终端机场预报:针对以下情况的短期天气预报)航空)。 以及其他资源,例如VAC(目视进近图)和NOTAM(通知飞行员)以进行预试飞行.

METAR, TAF, VAC, NOTAM Manizales机场 (哥伦比亚) / 国际民航组织 SKMZ/ IATA MZL

Manizales机场 (哥伦比亚) 它位于附近 Manizales, Gallinazo 在 2 km, Villamaria 在 6 km, Manizales 在 7 km, Chinchina 在 16 km, Neira 在 16 km, Palestina 在 18 km, Santa Rosa de Cabal 在 25 km, Aranzazu 在 27 km, Dos Quebradas 在 31 km, Filadelfia 在 31 km,

海拔 : 2094 m = 6870 ft

跑道

的天气 : 多云 在 Gallinazo

ciel couvert
16 °C
12↗16 °C

的风 0 km/h

的酒店 Manizales

Booking.com

的鸟瞰图 Manizales

METAR Manizales机场的 - SKMZ

SKMZ 311400Z 00000KT 8000 VCFG BKN060 16/15 Q1029 RMK N/W A3038

Manizales机场METAR解码 (哥伦比亚)

SKMZ机场发行的METAR日期2021年08月31日至14:00 GMT, 警告:此METAR已过期, 已于 22 天 528 小时 -31670 分钟.

可见度为 8 km = 5 mile.

温度为16 °C = 61 °F 露点为15 °C = 59 °F 。 这相当于94%的相对湿度。.

QNH是1029 mb = 30.39 inHg

的风 0 km/h = 0 kt, 风向为 0°.

云: 距云 6000 ft = 1830 m.

VC 多雾路段

备注 N/W A3038

TAF Manizales机场的 - SKMZ

没有TAF,但可以使用航空天气 Pereira机场的 (SKPE) 在 39 km

最近的机场 Manizales

数据源